Time;durP1;ratioP1;P1;durP2;ratioP2;P2;SDS_P1;SDS_P2;PMS_P1;PMS_P2;Temp;Humidity;BMP_temperature;BMP_pressure;BME280_temperature;BME280_humidity;BME280_pressure;Samples;Min_cycle;Max_cycle;Signal;HPM_P1;HPM_P2
2022/11/27 00:00:31;;;;;;;3.50;2.85;;;17.60;54.30;;;;;;5088562;28;45434;-73
2022/11/27 00:03:00;;;;;;;3.10;2.70;;;17.60;54.20;;;;;;5088683;28;45300;-73
2022/11/27 00:05:27;;;;;;;3.33;2.53;;;17.60;54.20;;;;;;5088739;28;45308;-73
2022/11/27 00:07:53;;;;;;;3.33;2.60;;;17.60;54.10;;;;;;5101151;27;45258;-73
2022/11/27 00:10:21;;;;;;;3.17;2.10;;;17.60;54.10;;;;;;5108730;27;45191;-73
2022/11/27 00:12:48;;;;;;;2.17;2.08;;;17.60;54.00;;;;;;5109027;27;45421;-73
2022/11/27 00:15:15;;;;;;;2.60;2.40;;;17.60;53.90;;;;;;5108998;27;45338;-73
2022/11/27 00:17:42;;;;;;;3.03;2.47;;;17.60;53.90;;;;;;5108545;27;46632;-73
2022/11/27 00:20:13;;;;;;;2.63;2.00;;;17.60;53.90;;;;;;5108924;27;45209;-73
2022/11/27 00:22:40;;;;;;;2.85;2.40;;;17.70;53.80;;;;;;5108925;27;45251;-73
2022/11/27 00:25:11;;;;;;;2.20;2.00;;;17.70;53.80;;;;;;5109020;27;45537;-73
2022/11/27 00:27:39;;;;;;;3.13;2.03;;;17.70;53.70;;;;;;5091145;27;45566;-73
2022/11/27 00:30:07;;;;;;;2.45;2.20;;;17.80;53.60;;;;;;5108574;27;45415;-74
2022/11/27 00:32:34;;;;;;;3.25;2.38;;;17.80;53.50;;;;;;5105500;27;45256;-73
2022/11/27 00:35:01;;;;;;;2.38;2.03;;;17.80;53.40;;;;;;5108809;27;45412;-73
2022/11/27 00:37:29;;;;;;;2.33;2.13;;;17.90;53.50;;;;;;5108248;27;46742;-74
2022/11/27 00:39:56;;;;;;;4.68;2.22;;;17.90;53.40;;;;;;5107908;27;45342;-73
2022/11/27 00:42:23;;;;;;;3.25;2.28;;;17.90;53.40;;;;;;5108034;27;45196;-73
2022/11/27 00:44:50;;;;;;;2.88;2.10;;;17.90;53.40;;;;;;5108466;27;45314;-73
2022/11/27 00:47:17;;;;;;;2.90;2.15;;;17.90;53.40;;;;;;5093594;27;46680;-73
2022/11/27 00:49:45;;;;;;;2.85;1.92;;;17.90;53.50;;;;;;5087076;28;45301;-73
2022/11/27 00:52:12;;;;;;;3.70;2.03;;;17.80;53.40;;;;;;5087792;28;45375;-73
2022/11/27 00:54:41;;;;;;;2.58;2.03;;;17.80;53.40;;;;;;5087788;28;45197;-73
2022/11/27 00:57:08;;;;;;;3.95;2.13;;;17.80;53.50;;;;;;5087477;28;46303;-73
2022/11/27 00:59:36;;;;;;;3.55;2.10;;;17.80;53.50;;;;;;5087464;28;45335;-73
2022/11/27 01:02:03;;;;;;;4.07;2.10;;;17.70;53.60;;;;;;5087548;28;45190;-73
2022/11/27 01:04:30;;;;;;;2.92;2.03;;;17.70;53.60;;;;;;5087844;28;45241;-73
2022/11/27 01:06:57;;;;;;;2.33;2.03;;;17.70;53.60;;;;;;5092178;27;46700;-73
2022/11/27 01:09:24;;;;;;;2.63;2.10;;;17.60;53.60;;;;;;5107888;27;45417;-73
2022/11/27 01:11:52;;;;;;;2.80;2.13;;;17.60;53.60;;;;;;5108017;27;45290;-73
2022/11/27 01:14:19;;;;;;;2.88;1.95;;;17.50;53.60;;;;;;5108406;27;45391;-73
2022/11/27 01:16:46;;;;;;;2.22;2.00;;;17.50;53.70;;;;;;5107535;27;45698;-73
2022/11/27 01:19:14;;;;;;;2.50;2.17;;;17.50;53.70;;;;;;5107842;27;45367;-73
2022/11/27 01:21:41;;;;;;;2.75;2.10;;;17.50;53.70;;;;;;5108150;27;45306;-73
2022/11/27 01:24:11;;;;;;;2.90;2.28;;;17.50;53.70;;;;;;5107534;27;45304;-73
2022/11/27 01:26:38;;;;;;;2.65;2.05;;;17.50;53.70;;;;;;5106789;27;45531;-73
2022/11/27 01:29:06;;;;;;;4.20;2.33;;;17.50;54.30;;;;;;5107532;27;45288;-72
2022/11/27 01:31:34;;;;;;;2.30;2.10;;;17.50;53.70;;;;;;5107624;27;45327;-73
2022/11/27 01:34:01;;;;;;;3.13;2.38;;;17.50;53.70;;;;;;5107678;27;45466;-72
2022/11/27 01:36:29;;;;;;;3.50;2.50;;;17.50;53.60;;;;;;5107356;27;47310;-73
2022/11/27 01:38:56;;;;;;;3.47;2.40;;;17.50;53.60;;;;;;5107239;27;45347;-73
2022/11/27 01:41:24;;;;;;;2.67;2.00;;;17.50;54.20;;;;;;5107488;27;45328;-73
2022/11/27 01:43:54;;;;;;;3.58;2.22;;;17.60;53.60;;;;;;5107666;27;45406;-73
2022/11/27 01:46:31;;;;;;;4.30;2.42;;;17.60;53.50;;;;;;5082907;28;45339;-73
2022/11/27 01:49:03;;;;;;;4.20;2.40;;;17.60;53.40;;;;;;5086674;28;45288;-73
2022/11/27 01:51:30;;;;;;;3.08;2.40;;;17.70;53.40;;;;;;5086648;28;45308;-73
2022/11/27 01:53:57;;;;;;;3.03;2.30;;;17.70;53.30;;;;;;5086979;28;45649;-73
2022/11/27 01:56:25;;;;;;;3.17;2.10;;;17.70;53.20;;;;;;5086829;28;46649;-73
2022/11/27 01:58:52;;;;;;;2.38;2.17;;;17.70;53.20;;;;;;5085807;28;45239;-73
2022/11/27 02:01:19;;;;;;;3.47;2.67;;;17.70;53.20;;;;;;5086708;28;45339;-73
2022/11/27 02:03:49;;;;;;;3.58;2.38;;;17.70;53.10;;;;;;5086227;28;45283;-72
2022/11/27 02:06:16;;;;;;;3.05;2.28;;;17.70;53.10;;;;;;5086520;28;47953;-73
2022/11/27 02:08:43;;;;;;;2.13;1.92;;;17.70;53.20;;;;;;5086391;28;45533;-73
2022/11/27 02:11:13;;;;;;;2.78;2.08;;;17.70;53.20;;;;;;5087147;28;45314;-73
2022/11/27 02:13:43;;;;;;;3.25;2.33;;;17.60;53.20;;;;;;5087203;28;45208;-72
2022/11/27 02:16:12;;;;;;;3.10;2.05;;;17.60;53.30;;;;;;5086506;28;46603;-73
2022/11/27 02:18:42;;;;;;;4.07;2.65;;;17.60;53.30;;;;;;5085601;28;45199;-73
2022/11/27 02:21:15;;;;;;;3.60;2.40;;;17.50;53.30;;;;;;5086562;28;45375;-72
2022/11/27 02:23:57;;;;;;;3.00;2.22;;;17.50;53.40;;;;;;5086627;28;45558;-73
2022/11/27 02:27:08;;;;;;;2.85;2.30;;;17.50;53.40;;;;;;5085664;28;47242;-73
2022/11/27 02:29:37;;;;;;;3.10;2.17;;;17.50;53.40;;;;;;5021067;28;45484;-72
2022/11/27 02:32:08;;;;;;;3.20;2.30;;;17.50;53.40;;;;;;5078182;28;45309;-72
2022/11/27 02:34:37;;;;;;;3.55;2.40;;;17.50;53.40;;;;;;5086289;28;45272;-73
2022/11/27 02:37:06;;;;;;;2.88;2.53;;;17.50;53.40;;;;;;5085813;28;45504;-72
2022/11/27 02:39:37;;;;;;;3.13;2.42;;;17.50;53.40;;;;;;5086076;28;45250;-73
2022/11/27 02:42:07;;;;;;;3.20;2.38;;;17.60;53.40;;;;;;5085803;28;45362;-73
2022/11/27 02:44:36;;;;;;;2.50;2.30;;;17.60;53.30;;;;;;5067915;28;45484;-73
2022/11/27 02:47:03;;;;;;;3.55;2.42;;;17.70;53.20;;;;;;5098421;27;47945;-73
2022/11/27 02:49:31;;;;;;;3.25;2.25;;;17.70;53.20;;;;;;5106447;27;45210;-73
2022/11/27 02:51:58;;;;;;;3.13;2.35;;;17.70;53.10;;;;;;5106396;27;45209;-72
2022/11/27 02:54:27;;;;;;;3.42;2.30;;;17.80;53.10;;;;;;5106656;27;45670;-73
2022/11/27 02:56:54;;;;;;;3.05;2.35;;;17.80;53.10;;;;;;5106103;27;46838;-73
2022/11/27 02:59:21;;;;;;;3.78;2.40;;;17.80;53.00;;;;;;5106232;27;45316;-73
2022/11/27 03:01:51;;;;;;;4.22;2.70;;;17.80;53.00;;;;;;5106543;27;45368;-73
2022/11/27 03:04:19;;;;;;;2.65;2.30;;;17.80;53.00;;;;;;5106604;27;45313;-73
2022/11/27 03:06:47;;;;;;;3.50;2.65;;;17.80;53.00;;;;;;5102841;27;46455;-73
2022/11/27 03:09:16;;;;;;;2.95;2.17;;;17.80;53.00;;;;;;5086445;27;45515;-73
2022/11/27 03:11:44;;;;;;;3.53;2.17;;;17.80;53.10;;;;;;5088924;28;45328;-73
2022/11/27 03:14:11;;;;;;;3.25;2.35;;;17.70;53.00;;;;;;5089874;28;45241;-73
2022/11/27 03:16:39;;;;;;;3.15;2.50;;;17.70;53.00;;;;;;5088909;28;45838;-73
2022/11/27 03:19:12;;;;;;;2.35;2.15;;;17.70;53.10;;;;;;5089320;28;45250;-73
2022/11/27 03:21:40;;;;;;;2.63;2.28;;;17.70;53.10;;;;;;5089441;28;45312;-72
2022/11/27 03:24:07;;;;;;;2.80;2.50;;;17.70;53.10;;;;;;5089640;28;45284;-73
2022/11/27 03:26:34;;;;;;;2.25;2.05;;;17.60;53.20;;;;;;5089035;28;48041;-73
2022/11/27 03:29:01;;;;;;;2.50;2.30;;;17.60;53.20;;;;;;5088972;28;45190;-72
2022/11/27 03:31:29;;;;;;;3.35;2.70;;;17.60;53.30;;;;;;5088300;28;45239;-72
2022/11/27 03:33:56;;;;;;;2.83;2.55;;;17.50;53.30;;;;;;5088876;28;45218;-73
2022/11/27 03:36:26;;;;;;;2.95;2.13;;;17.50;53.40;;;;;;5088500;28;46932;-73
2022/11/27 03:38:53;;;;;;;3.20;2.38;;;17.50;53.40;;;;;;5089099;28;45277;-73
2022/11/27 03:41:22;;;;;;;2.78;2.38;;;17.50;53.40;;;;;;5088949;28;45378;-72
2022/11/27 03:43:52;;;;;;;3.00;2.28;;;17.50;53.40;;;;;;5089352;28;45285;-73
2022/11/27 03:46:24;;;;;;;3.80;2.40;;;17.50;53.40;;;;;;5094424;27;46352;-73
2022/11/27 03:48:55;;;;;;;2.30;2.10;;;17.50;53.40;;;;;;5091216;27;45268;-73
2022/11/27 03:51:26;;;;;;;2.83;1.88;;;17.50;53.40;;;;;;5109277;27;45268;-73
2022/11/27 03:53:58;;;;;;;2.35;1.90;;;17.50;53.30;;;;;;5091316;27;45320;-73
2022/11/27 03:56:30;;;;;;;2.88;1.92;;;17.50;53.20;;;;;;5108845;27;48415;-72
2022/11/27 03:59:00;;;;;;;2.20;1.88;;;17.50;53.20;;;;;;5090863;27;45346;-73
2022/11/27 04:01:27;;;;;;;3.05;1.77;;;17.50;53.10;;;;;;5108908;27;45266;-73
2022/11/27 04:03:54;;;;;;;3.20;2.20;;;17.60;53.10;;;;;;5090992;27;45296;-73
2022/11/27 04:06:21;;;;;;;2.40;1.80;;;17.60;53.00;;;;;;5108742;27;45308;-73
2022/11/27 04:08:49;;;;;;;1.90;1.80;;;17.60;53.50;;;;;;5088291;27;45296;-73
2022/11/27 04:11:16;;;;;;;3.40;1.95;;;17.60;52.80;;;;;;5088570;28;45193;-72
2022/11/27 04:13:43;;;;;;;2.33;1.90;;;17.60;52.80;;;;;;5088137;28;45679;-73
2022/11/27 04:16:10;;;;;;;2.47;1.85;;;17.60;52.70;;;;;;5088412;28;47643;-73
2022/11/27 04:18:42;;;;;;;2.22;1.88;;;17.60;52.70;;;;;;5088165;28;45300;-73
2022/11/27 04:21:10;;;;;;;2.35;1.92;;;17.60;52.70;;;;;;5087693;27;45337;-73
2022/11/27 04:23:37;;;;;;;1.88;1.70;;;17.60;52.70;;;;;;5088315;28;45296;-72
2022/11/27 04:26:08;;;;;;;1.70;1.60;;;17.60;52.70;;;;;;5087498;28;45359;-71
2022/11/27 04:28:36;;;;;;;2.30;1.80;;;17.60;52.70;;;;;;5087710;28;45256;-72
2022/11/27 04:31:03;;;;;;;2.47;2.10;;;17.50;52.70;;;;;;5070417;28;45276;-72
2022/11/27 04:33:30;;;;;;;2.17;1.77;;;17.50;52.70;;;;;;5088147;28;45477;-73
2022/11/27 04:35:57;;;;;;;2.00;1.80;;;17.50;52.80;;;;;;5087794;28;47270;-73
2022/11/27 04:38:24;;;;;;;2.05;1.85;;;17.50;52.80;;;;;;5088058;28;45504;-73
2022/11/27 04:40:56;;;;;;;2.08;1.70;;;17.50;52.80;;;;;;5088428;28;45333;-72
2022/11/27 04:43:25;;;;;;;1.75;1.65;;;17.50;52.90;;;;;;5088309;28;45575;-73
2022/11/27 04:45:51;;;;;;;2.95;1.90;;;17.40;52.70;;;;;;5089721;27;46674;-73
2022/11/27 04:48:19;;;;;;;2.13;1.92;;;17.50;52.80;;;;;;5108662;27;45395;-73
2022/11/27 04:50:46;;;;;;;2.30;2.10;;;17.50;52.70;;;;;;5108272;27;45363;-73
2022/11/27 04:53:12;;;;;;;2.10;1.70;;;17.50;52.70;;;;;;5108868;27;45180;-73
2022/11/27 04:55:39;;;;;;;2.17;1.98;;;17.50;52.60;;;;;;5108212;27;47422;-73
2022/11/27 04:58:06;;;;;;;2.42;1.67;;;17.50;52.60;;;;;;5108131;27;45371;-73
2022/11/27 05:00:35;;;;;;;1.83;1.60;;;17.50;53.20;;;;;;5108245;27;45358;-72
2022/11/27 05:03:02;;;;;;;1.52;1.38;;;17.50;52.50;;;;;;5108536;27;45245;-73
2022/11/27 05:05:29;;;;;;;2.10;1.90;;;17.50;52.50;;;;;;5108257;27;45810;-73
2022/11/27 05:07:57;;;;;;;1.73;1.60;;;17.60;52.40;;;;;;5095081;27;45387;-72
2022/11/27 05:10:25;;;;;;;1.83;1.67;;;17.60;52.30;;;;;;5087228;28;45328;-73
2022/11/27 05:12:52;;;;;;;1.40;1.30;;;17.70;52.30;;;;;;5087404;28;45322;-72
2022/11/27 05:15:19;;;;;;;1.55;1.45;;;17.70;52.20;;;;;;5087084;28;46628;-73
2022/11/27 05:17:48;;;;;;;1.73;1.48;;;17.70;52.20;;;;;;5069557;28;45308;-73
2022/11/27 05:20:15;;;;;;;2.00;1.63;;;17.70;52.20;;;;;;5087487;28;45311;-72
2022/11/27 05:22:43;;;;;;;1.60;1.50;;;17.70;52.20;;;;;;5087554;28;45337;-72
2022/11/27 05:25:10;;;;;;;1.80;1.50;;;17.70;52.20;;;;;;5087310;28;45563;-72
2022/11/27 05:27:36;;;;;;;1.63;1.52;;;17.70;52.20;;;;;;5086909;28;45714;-72
2022/11/27 05:30:04;;;;;;;1.42;1.30;;;17.70;52.20;;;;;;5087245;28;45450;-73
2022/11/27 05:32:32;;;;;;;1.48;1.38;;;17.70;52.20;;;;;;5068269;28;45524;-72
2022/11/27 05:35:00;;;;;;;1.98;1.73;;;17.60;52.20;;;;;;5068988;28;45356;-73
2022/11/27 05:37:28;;;;;;;2.00;1.52;;;17.60;52.30;;;;;;5087200;28;45740;-73
2022/11/27 05:39:55;;;;;;;1.65;1.52;;;17.60;52.30;;;;;;5069180;28;45348;-72
2022/11/27 05:42:23;;;;;;;1.92;1.65;;;17.50;52.40;;;;;;5087258;28;45508;-73
2022/11/27 05:44:50;;;;;;;1.90;1.40;;;17.50;52.30;;;;;;5086674;28;46611;-73
2022/11/27 05:47:16;;;;;;;1.83;1.70;;;17.50;52.40;;;;;;5100769;27;45252;-73
2022/11/27 05:49:44;;;;;;;2.15;1.52;;;17.50;52.50;;;;;;5107437;27;45296;-72
2022/11/27 05:52:12;;;;;;;1.60;1.50;;;17.50;52.50;;;;;;5107628;27;45444;-72
2022/11/27 05:54:41;;;;;;;1.50;1.40;;;17.40;52.50;;;;;;5106957;27;45420;-73
2022/11/27 05:57:08;;;;;;;1.70;1.60;;;17.40;52.50;;;;;;5107169;27;45411;-72
2022/11/27 05:59:35;;;;;;;2.13;1.58;;;17.40;52.50;;;;;;5106710;27;45291;-73
2022/11/27 06:02:02;;;;;;;1.60;1.48;;;17.40;52.50;;;;;;5107522;27;45290;-73
2022/11/27 06:04:29;;;;;;;1.33;1.23;;;17.40;52.50;;;;;;5107163;27;46712;-73
2022/11/27 06:06:56;;;;;;;1.60;1.50;;;17.40;52.40;;;;;;5102738;27;45417;-73
2022/11/27 06:09:25;;;;;;;1.55;1.45;;;17.40;52.40;;;;;;5086911;28;45256;-73
2022/11/27 06:11:52;;;;;;;1.63;1.27;;;17.50;52.40;;;;;;5086650;28;45644;-72
2022/11/27 06:14:18;;;;;;;1.40;1.30;;;17.50;52.30;;;;;;5086543;28;46559;-73
2022/11/27 06:16:45;;;;;;;1.40;1.27;;;17.50;52.20;;;;;;5086556;28;45245;-73
2022/11/27 06:19:13;;;;;;;1.70;1.33;;;17.50;52.20;;;;;;5086945;28;45409;-72
2022/11/27 06:21:40;;;;;;;1.52;1.30;;;17.50;52.10;;;;;;5086826;28;45272;-73
2022/11/27 06:24:07;;;;;;;1.58;1.48;;;17.50;52.10;;;;;;5068276;28;45735;-73
2022/11/27 06:26:36;;;;;;;1.85;1.52;;;17.50;52.00;;;;;;5086407;28;45272;-73
2022/11/27 06:29:03;;;;;;;1.30;1.20;;;17.50;51.90;;;;;;5086785;28;45324;-73
2022/11/27 06:31:31;;;;;;;1.30;1.20;;;17.50;51.90;;;;;;5086524;28;45315;-72
2022/11/27 06:33:59;;;;;;;1.48;1.17;;;17.50;51.80;;;;;;5086371;28;45472;-73
2022/11/27 06:36:28;;;;;;;2.03;1.30;;;17.50;51.80;;;;;;5086183;28;45266;-73
2022/11/27 06:38:55;;;;;;;1.20;1.10;;;17.50;51.80;;;;;;5086145;28;45303;-73
2022/11/27 06:41:23;;;;;;;1.67;1.50;;;17.50;51.80;;;;;;5086359;28;45621;-73
2022/11/27 06:43:52;;;;;;;1.77;1.67;;;17.50;51.80;;;;;;5086118;27;45245;-73
2022/11/27 06:46:19;;;;;;;1.63;1.40;;;17.50;51.80;;;;;;5095260;27;45347;-73
2022/11/27 06:48:48;;;;;;;1.30;1.20;;;17.50;51.80;;;;;;5110751;27;45531;-73
2022/11/27 06:51:16;;;;;;;1.55;1.42;;;17.50;51.90;;;;;;5110367;27;45561;-73
2022/11/27 06:53:43;;;;;;;1.20;1.10;;;17.40;51.80;;;;;;5110540;27;47310;-73
2022/11/27 06:56:13;;;;;;;1.48;1.30;;;17.40;51.90;;;;;;5110322;27;45327;-74
2022/11/27 06:58:42;;;;;;;1.30;1.20;;;17.40;51.90;;;;;;5110785;27;45250;-73
2022/11/27 07:01:12;;;;;;;1.50;1.30;;;17.40;51.90;;;;;;5111545;27;45287;-72
2022/11/27 07:03:39;;;;;;;1.33;1.23;;;17.40;51.90;;;;;;5109866;27;46722;-73
2022/11/27 07:06:08;;;;;;;1.27;1.17;;;17.40;51.90;;;;;;5109658;27;45335;-73
2022/11/27 07:08:35;;;;;;;1.30;1.10;;;17.40;51.80;;;;;;5091243;27;45284;-73
2022/11/27 07:11:02;;;;;;;1.45;1.20;;;17.40;52.50;;;;;;5092055;28;45507;-73
2022/11/27 07:13:30;;;;;;;1.33;1.20;;;17.40;51.80;;;;;;5091153;28;45475;-73
2022/11/27 07:16:00;;;;;;;1.15;1.05;;;17.40;51.80;;;;;;5090941;28;45201;-73
2022/11/27 07:18:29;;;;;;;1.52;1.27;;;17.50;51.80;;;;;;5091326;28;45267;-73
2022/11/27 07:20:56;;;;;;;1.23;1.13;;;17.50;51.70;;;;;;5091224;28;45225;-73
2022/11/27 07:23:23;;;;;;;1.30;1.20;;;17.50;51.60;;;;;;5091465;28;47080;-73
2022/11/27 07:25:50;;;;;;;1.48;1.38;;;17.50;51.60;;;;;;5073040;28;45359;-73
2022/11/27 07:28:17;;;;;;;1.20;1.10;;;17.60;51.60;;;;;;5091542;28;45308;-73
2022/11/27 07:30:44;;;;;;;1.20;1.10;;;17.60;51.60;;;;;;5091753;28;45458;-73
2022/11/27 07:33:12;;;;;;;1.73;1.40;;;17.60;51.50;;;;;;5091204;28;45198;-73
2022/11/27 07:35:41;;;;;;;1.45;1.27;;;17.60;51.50;;;;;;5091540;28;45331;-73
2022/11/27 07:38:09;;;;;;;1.30;1.20;;;17.60;51.50;;;;;;5090430;28;45237;-73
2022/11/27 07:40:38;;;;;;;1.60;1.40;;;17.60;51.50;;;;;;5090872;28;45252;-73
2022/11/27 07:43:05;;;;;;;1.40;1.30;;;17.60;51.60;;;;;;5090022;28;45638;-73
2022/11/27 07:45:32;;;;;;;2.10;1.40;;;17.50;51.50;;;;;;5090216;28;45296;-73
2022/11/27 07:48:00;;;;;;;2.00;1.38;;;17.50;51.60;;;;;;5111149;27;45339;-73
2022/11/27 07:50:27;;;;;;;1.55;1.45;;;17.50;51.60;;;;;;5095310;27;45581;-73
2022/11/27 07:52:55;;;;;;;2.03;1.60;;;17.50;51.70;;;;;;5111239;27;47010;-73
2022/11/27 07:55:22;;;;;;;1.27;1.17;;;17.50;51.70;;;;;;5110094;27;45456;-73
2022/11/27 07:57:50;;;;;;;1.50;1.40;;;17.40;51.80;;;;;;5110678;27;45185;-73
2022/11/27 08:00:18;;;;;;;1.42;1.27;;;17.40;51.80;;;;;;5109844;27;45153;-73
2022/11/27 08:02:45;;;;;;;1.75;1.40;;;17.40;51.90;;;;;;5108986;27;45809;-73
2022/11/27 08:05:12;;;;;;;1.75;1.33;;;17.40;51.90;;;;;;5108235;27;45357;-73
2022/11/27 08:07:39;;;;;;;1.48;1.30;;;17.40;51.90;;;;;;5098039;27;45252;-73
2022/11/27 08:10:09;;;;;;;1.40;1.30;;;17.40;52.00;;;;;;5085496;27;45714;-73
2022/11/27 08:12:36;;;;;;;2.25;1.50;;;17.40;51.90;;;;;;5087557;28;47317;-73
2022/11/27 08:15:04;;;;;;;1.73;1.30;;;17.40;51.90;;;;;;5086496;28;45318;-73
2022/11/27 08:17:31;;;;;;;1.80;1.33;;;17.40;51.90;;;;;;5087896;28;45189;-73
2022/11/27 08:19:58;;;;;;;1.52;1.10;;;17.40;51.80;;;;;;5087889;28;45519;-73
2022/11/27 08:22:25;;;;;;;1.60;1.30;;;17.40;51.80;;;;;;5087231;28;47945;-72
2022/11/27 08:24:53;;;;;;;1.52;1.15;;;17.50;51.80;;;;;;5087403;28;45363;-73
2022/11/27 08:27:22;;;;;;;1.20;1.10;;;17.50;51.70;;;;;;5087581;27;45184;-73
2022/11/27 08:29:50;;;;;;;1.42;1.27;;;17.50;51.70;;;;;;5087619;28;45465;-73
2022/11/27 08:32:17;;;;;;;1.38;1.27;;;17.50;51.60;;;;;;5086894;27;46685;-73
2022/11/27 08:34:44;;;;;;;1.50;1.23;;;17.60;51.70;;;;;;5087261;28;45642;-74
2022/11/27 08:37:12;;;;;;;1.30;1.20;;;17.60;51.60;;;;;;5087798;27;45160;-74
2022/11/27 08:39:38;;;;;;;1.70;1.23;;;17.60;51.60;;;;;;5086438;28;45594;-73
2022/11/27 08:42:05;;;;;;;1.50;1.40;;;17.60;51.60;;;;;;5087338;28;45331;-73
2022/11/27 08:44:37;;;;;;;1.90;1.42;;;17.60;51.60;;;;;;5088493;28;45282;-74
2022/11/27 08:47:04;;;;;;;1.30;1.10;;;17.60;51.60;;;;;;5087264;27;45210;-73
2022/11/27 08:49:33;;;;;;;1.27;1.17;;;17.60;51.60;;;;;;5087422;28;45292;-73
2022/11/27 08:52:00;;;;;;;1.45;1.08;;;17.60;51.60;;;;;;5086829;28;45310;-73
2022/11/27 08:54:27;;;;;;;1.50;1.40;;;17.60;51.60;;;;;;5087211;28;45256;-74
2022/11/27 08:56:54;;;;;;;1.40;1.30;;;17.60;51.60;;;;;;5087041;28;45475;-74
2022/11/27 08:59:21;;;;;;;1.67;1.20;;;17.60;51.60;;;;;;5087479;28;45291;-74
2022/11/27 09:01:53;;;;;;;1.27;1.17;;;17.60;51.60;;;;;;5087584;28;45651;-74
2022/11/27 09:04:24;;;;;;;1.52;1.30;;;17.60;51.60;;;;;;5086887;28;45335;-75
2022/11/27 09:06:51;;;;;;;1.33;1.23;;;17.60;51.60;;;;;;5090628;27;45253;-74
2022/11/27 09:09:18;;;;;;;1.20;1.10;;;17.60;51.60;;;;;;5107420;27;45668;-74
2022/11/27 09:11:47;;;;;;;1.05;1.05;;;17.60;51.70;;;;;;5107157;27;46671;-74
2022/11/27 09:14:14;;;;;;;2.05;1.33;;;17.60;51.70;;;;;;5107191;27;45237;-74
2022/11/27 09:16:43;;;;;;;1.30;1.20;;;17.50;51.70;;;;;;5107326;27;45246;-74
2022/11/27 09:19:13;;;;;;;1.50;1.30;;;17.50;51.70;;;;;;5089543;27;45346;-74
2022/11/27 09:21:40;;;;;;;1.45;1.35;;;17.50;51.80;;;;;;5106928;27;45669;-74
2022/11/27 09:24:08;;;;;;;1.40;1.30;;;17.50;51.80;;;;;;5106990;27;45255;-74
2022/11/27 09:26:35;;;;;;;1.23;1.13;;;17.50;51.80;;;;;;5107168;27;45307;-74
2022/11/27 09:29:03;;;;;;;1.48;1.38;;;17.50;51.80;;;;;;5107312;27;45491;-74
2022/11/27 09:31:30;;;;;;;2.65;1.10;;;17.50;51.70;;;;;;5106816;27;46971;-74
2022/11/27 09:33:58;;;;;;;1.45;1.35;;;17.60;51.80;;;;;;5106972;27;45260;-74
2022/11/27 09:36:29;;;;;;;1.40;1.30;;;17.60;51.80;;;;;;5088891;27;45379;-74
2022/11/27 09:38:58;;;;;;;1.17;1.08;;;17.60;51.70;;;;;;5107102;27;45318;-74
2022/11/27 09:41:44;;;;;;;1.30;1.20;;;17.60;51.80;;;;;;5106693;27;45536;-74
2022/11/27 09:44:31;;;;;;;1.52;1.27;;;17.60;51.70;;;;;;5107015;27;45307;-74
2022/11/27 09:47:00;;;;;;;1.15;1.05;;;17.60;51.70;;;;;;5095325;27;45320;-75
2022/11/27 09:49:29;;;;;;;1.08;1.00;;;17.60;51.70;;;;;;5086510;28;45244;-74
2022/11/27 09:52:08;;;;;;;1.05;0.95;;;17.60;51.70;;;;;;5086088;28;45229;-74
2022/11/27 09:54:37;;;;;;;1.20;1.10;;;17.60;51.80;;;;;;5086386;28;45244;-75
2022/11/27 09:57:06;;;;;;;1.48;1.25;;;17.60;51.80;;;;;;5086111;28;45246;-74
2022/11/27 09:59:37;;;;;;;1.40;1.30;;;17.60;51.80;;;;;;5068508;28;45636;-74
2022/11/27 10:02:09;;;;;;;1.15;1.05;;;17.60;51.80;;;;;;5085817;28;46792;-74
2022/11/27 10:04:35;;;;;;;2.10;1.30;;;17.60;51.90;;;;;;5086066;28;45202;-74
2022/11/27 10:07:12;;;;;;;1.42;1.20;;;17.60;51.90;;;;;;5086361;28;45341;-74
2022/11/27 10:09:46;;;;;;;1.40;1.27;;;17.60;51.90;;;;;;5086273;28;45459;-74
2022/11/27 10:12:16;;;;;;;1.73;1.40;;;17.60;52.00;;;;;;5085657;28;45637;-74
2022/11/27 10:14:47;;;;;;;1.35;1.25;;;17.60;52.10;;;;;;5073403;28;45410;-75
2022/11/27 10:17:19;;;;;;;1.60;1.42;;;17.60;52.10;;;;;;5086069;28;45161;-75
2022/11/27 10:19:49;;;;;;;1.65;1.40;;;17.60;52.10;;;;;;5050411;28;45254;-75
2022/11/27 10:22:19;;;;;;;2.30;1.40;;;17.60;52.10;;;;;;5085807;28;47131;-75
2022/11/27 10:24:52;;;;;;;1.55;1.45;;;17.60;52.10;;;;;;5082254;28;45453;-76
2022/11/27 10:27:22;;;;;;;1.45;1.25;;;17.60;52.20;;;;;;5085275;28;45311;-75
2022/11/27 10:29:52;;;;;;;1.73;1.27;;;17.60;52.20;;;;;;5084511;28;45485;-76
2022/11/27 10:32:19;;;;;;;2.15;1.13;;;17.60;52.30;;;;;;5069291;28;45755;-71
2022/11/27 10:34:48;;;;;;;2.47;1.88;;;17.60;52.50;;;;;;5084550;28;45500;-75
2022/11/27 10:37:19;;;;;;;3.38;1.40;;;17.70;52.50;;;;;;5084995;28;45506;-71
2022/11/27 10:39:48;;;;;;;1.80;1.20;;;17.70;52.50;;;;;;5085715;28;45260;-72
2022/11/27 10:42:17;;;;;;;2.78;1.30;;;17.70;52.40;;;;;;5083697;28;45683;-73
2022/11/27 10:44:46;;;;;;;2.20;1.13;;;17.70;52.60;;;;;;5084118;28;45314;-71
2022/11/27 10:47:13;;;;;;;6.75;1.35;;;17.70;52.60;;;;;;5085085;27;45431;-70
2022/11/27 10:49:40;;;;;;;2.33;1.55;;;17.60;52.80;;;;;;5082103;28;45497;-72
2022/11/27 10:52:11;;;;;;;3.25;2.03;;;17.60;52.80;;;;;;5067913;28;45434;-71
2022/11/27 10:54:40;;;;;;;2.47;1.70;;;17.60;52.80;;;;;;5082772;28;45296;-74
2022/11/27 10:57:24;;;;;;;1.65;1.25;;;17.60;52.90;;;;;;5073724;28;45343;-74
2022/11/27 10:59:58;;;;;;;1.70;1.30;;;17.70;53.00;;;;;;5067936;28;45373;-71
2022/11/27 11:02:33;;;;;;;6.45;1.50;;;17.70;53.70;;;;;;5072774;28;45474;-71
2022/11/27 11:05:13;;;;;;;3.03;1.52;;;17.70;53.00;;;;;;5066166;28;45336;-74
2022/11/27 11:07:40;;;;;;;4.45;1.52;;;17.80;53.30;;;;;;5080289;27;45432;-73
2022/11/27 11:10:25;;;;;;;5.57;1.80;;;17.90;53.40;;;;;;5078021;28;46057;-72
2022/11/27 11:13:09;;;;;;;2.25;1.50;;;18.00;52.70;;;;;;5082575;28;46861;-70
2022/11/27 11:15:47;;;;;;;1.75;1.20;;;18.00;52.70;;;;;;5077328;28;45136;-71
2022/11/27 11:18:17;;;;;;;1.52;1.30;;;18.10;52.60;;;;;;5081142;28;45311;-71
2022/11/27 11:20:44;;;;;;;3.40;1.77;;;18.10;52.60;;;;;;5074778;28;45352;-69
2022/11/27 11:23:21;;;;;;;1.98;1.50;;;18.10;52.50;;;;;;5066866;28;46562;-71
2022/11/27 11:25:51;;;;;;;1.92;1.27;;;18.20;52.60;;;;;;5081221;28;45505;-71
2022/11/27 11:28:18;;;;;;;1.83;1.50;;;18.20;52.50;;;;;;5080860;28;45478;-70
2022/11/27 11:31:00;;;;;;;2.50;1.45;;;18.20;52.40;;;;;;5081196;27;45316;-70
2022/11/27 11:33:27;;;;;;;2.70;1.42;;;18.20;53.00;;;;;;5079252;28;45697;-71
2022/11/27 11:35:54;;;;;;;3.72;1.20;;;18.20;52.30;;;;;;5084067;28;45337;-70
2022/11/27 11:38:27;;;;;;;2.42;1.40;;;18.20;52.30;;;;;;5081379;28;45371;-70
2022/11/27 11:41:02;;;;;;;1.50;1.15;;;18.30;52.30;;;;;;5076605;28;45467;-69
2022/11/27 11:43:31;;;;;;;2.65;1.50;;;18.40;52.10;;;;;;5080304;28;45432;-70
2022/11/27 11:46:07;;;;;;;3.03;1.40;;;18.40;52.70;;;;;;5085704;27;45344;-69
2022/11/27 11:48:35;;;;;;;1.27;1.17;;;18.30;52.20;;;;;;5086924;27;45671;-69
2022/11/27 11:51:03;;;;;;;2.17;1.42;;;18.30;52.20;;;;;;5087659;28;45359;-69
2022/11/27 11:53:33;;;;;;;4.15;1.42;;;18.20;52.30;;;;;;5083445;28;47800;-70
2022/11/27 11:56:06;;;;;;;2.67;1.40;;;18.20;52.40;;;;;;5081875;28;45404;-69
2022/11/27 11:58:57;;;;;;;1.88;1.38;;;18.20;52.50;;;;;;5066204;28;45289;-70
2022/11/27 12:01:37;;;;;;;1.30;1.20;;;18.10;52.60;;;;;;5075613;28;45421;-69
2022/11/27 12:04:12;;;;;;;1.40;1.25;;;18.10;52.70;;;;;;5069737;28;46331;-69
2022/11/27 12:06:46;;;;;;;2.08;1.30;;;18.10;52.80;;;;;;5077131;27;45391;-69
2022/11/27 12:09:33;;;;;;;2.22;1.58;;;18.00;52.90;;;;;;5092493;27;45375;-70
2022/11/27 12:12:04;;;;;;;3.00;1.52;;;18.00;52.80;;;;;;5081075;28;45471;-70
2022/11/27 12:14:39;;;;;;;1.40;1.30;;;18.00;53.00;;;;;;5080832;28;45404;-70
2022/11/27 12:17:13;;;;;;;2.03;1.40;;;17.90;53.00;;;;;;5087380;28;45250;-69
2022/11/27 12:19:59;;;;;;;4.03;1.50;;;17.90;53.20;;;;;;5087293;28;45281;-71
2022/11/27 12:22:36;;;;;;;4.60;1.40;;;17.90;53.30;;;;;;5087646;28;45296;-70
2022/11/27 12:25:05;;;;;;;4.32;1.63;;;17.90;53.30;;;;;;5086420;28;45743;-71
2022/11/27 12:27:39;;;;;;;3.38;1.90;;;17.90;53.40;;;;;;5084098;28;45326;-69
2022/11/27 12:30:12;;;;;;;2.83;1.52;;;17.90;53.40;;;;;;5067335;28;45402;-74
2022/11/27 12:33:03;;;;;;;3.42;1.83;;;17.90;53.60;;;;;;5079695;28;45441;-73
2022/11/27 12:35:33;;;;;;;5.10;1.65;;;18.00;53.90;;;;;;5078276;28;45431;-72
2022/11/27 12:38:23;;;;;;;3.45;1.60;;;18.10;53.40;;;;;;5085357;28;45265;-68
2022/11/27 12:40:57;;;;;;;6.25;1.73;;;18.20;53.30;;;;;;5085057;28;45249;-75
2022/11/27 12:43:25;;;;;;;7.15;1.90;;;18.20;53.30;;;;;;5080732;27;45407;-76
2022/11/27 12:45:55;;;;;;;5.13;1.90;;;18.30;53.10;;;;;;5085635;27;45411;-75
2022/11/27 12:48:24;;;;;;;5.57;2.13;;;18.40;53.10;;;;;;5087123;27;45355;-73
2022/11/27 12:50:54;;;;;;;4.65;1.88;;;18.40;52.80;;;;;;5080237;28;45577;-77
2022/11/27 12:53:27;;;;;;;84.28;73.72;;;18.40;52.70;;;;;;5075276;28;45767;-72
2022/11/27 12:56:00;;;;;;;28.08;24.88;;;18.50;52.60;;;;;;5082553;28;47090;-69